createdAt,value
2023-01-30T00:02:27.566Z,-0.48
2023-01-30T00:07:31.678Z,-0.53
2023-01-30T00:12:34.515Z,-0.58
2023-01-30T00:17:37.236Z,-0.57
2023-01-30T00:22:49.326Z,-0.56
2023-01-30T00:28:01.201Z,-0.61
2023-01-30T00:33:05.454Z,-0.69
2023-01-30T00:38:10.261Z,-0.57
2023-01-30T00:43:36.486Z,-0.50
2023-01-30T00:48:39.368Z,-0.39
2023-01-30T00:53:43.646Z,-0.42
2023-01-30T00:58:46.378Z,-0.39
2023-01-30T01:03:49.101Z,-0.42
2023-01-30T01:08:53.210Z,-0.43
2023-01-30T01:13:57.315Z,-0.43
2023-01-30T01:19:00.300Z,-0.45
2023-01-30T01:24:04.831Z,-0.50
2023-01-30T01:29:12.783Z,-0.43
2023-01-30T01:34:15.685Z,-0.35
2023-01-30T01:39:21.493Z,-0.29
2023-01-30T01:44:26.014Z,-0.26
2023-01-30T01:49:30.388Z,-0.19
2023-01-30T01:54:38.629Z,-0.09
2023-01-30T01:59:45.250Z,-0.03
2023-01-30T02:05:02.917Z,0.00
2023-01-30T02:10:10.306Z,0.05
2023-01-30T02:15:13.344Z,0.12
2023-01-30T02:20:24.322Z,0.15
2023-01-30T02:26:09.280Z,0.13
2023-01-30T02:31:25.423Z,0.14
2023-01-30T02:36:30.755Z,0.19
2023-01-30T02:41:38.465Z,0.25
2023-01-30T02:46:49.055Z,0.33
2023-01-30T02:51:51.973Z,0.34
2023-01-30T02:56:58.782Z,0.37
2023-01-30T03:02:33.132Z,0.40
2023-01-30T03:07:42.187Z,0.46
2023-01-30T03:12:50.602Z,0.55
2023-01-30T03:17:55.829Z,0.57
2023-01-30T03:22:59.409Z,0.57
2023-01-30T03:28:03.505Z,0.62
2023-01-30T03:33:07.639Z,0.63
2023-01-30T03:38:13.358Z,0.73
2023-01-30T03:43:16.054Z,0.84
2023-01-30T03:48:20.453Z,0.87
2023-01-30T03:53:23.551Z,0.95
2023-01-30T03:58:26.561Z,1.01
2023-01-30T04:03:32.078Z,1.07
2023-01-30T04:08:35.663Z,1.18
2023-01-30T04:13:39.357Z,1.22
2023-01-30T04:18:43.549Z,1.31
2023-01-30T04:23:53.135Z,1.36
2023-01-30T04:28:56.011Z,1.33
2023-01-30T04:34:00.447Z,1.34
2023-01-30T04:39:03.271Z,1.30
2023-01-30T04:44:07.896Z,1.26
2023-01-30T04:49:35.198Z,1.29
2023-01-30T04:54:39.161Z,1.29
2023-01-30T04:59:42.302Z,1.27
2023-01-30T05:04:51.396Z,1.33
2023-01-30T05:09:54.104Z,1.41
2023-01-30T05:14:56.943Z,1.46
2023-01-30T05:20:01.023Z,1.53
2023-01-30T05:25:03.906Z,1.53
2023-01-30T05:30:07.845Z,1.62
2023-01-30T05:35:12.018Z,1.69
2023-01-30T05:40:15.162Z,1.77
2023-01-30T05:45:18.336Z,1.91
2023-01-30T05:50:22.529Z,1.96
2023-01-30T05:55:25.488Z,2.01
2023-01-30T06:00:28.270Z,2.05
2023-01-30T06:05:32.613Z,1.99
2023-01-30T06:10:35.611Z,1.99
2023-01-30T06:15:39.127Z,1.97
2023-01-30T06:20:48.371Z,1.92
2023-01-30T06:25:51.744Z,1.94
2023-01-30T06:30:54.997Z,1.94
2023-01-30T06:35:59.127Z,1.92
2023-01-30T06:41:01.906Z,1.90
2023-01-30T06:46:04.893Z,1.92
2023-01-30T06:51:09.046Z,1.95
2023-01-30T06:56:11.977Z,1.86
2023-01-30T07:01:14.824Z,1.83
2023-01-30T07:06:18.932Z,1.66
2023-01-30T07:11:21.624Z,1.62
2023-01-30T07:16:29.052Z,1.69
2023-01-30T07:21:33.186Z,1.80
2023-01-30T07:26:36.384Z,1.90
2023-01-30T07:31:39.181Z,1.84
2023-01-30T07:36:43.309Z,1.78
2023-01-30T07:41:46.016Z,1.81
2023-01-30T07:46:48.847Z,1.85
2023-01-30T07:51:53.160Z,1.93
2023-01-30T07:56:55.834Z,1.98
2023-01-30T08:01:58.684Z,2.00
2023-01-30T08:07:02.802Z,2.05
2023-01-30T08:12:06.088Z,2.13
2023-01-30T08:17:08.907Z,2.21
2023-01-30T08:22:13.212Z,2.30
2023-01-30T08:27:16.104Z,2.45
2023-01-30T08:32:18.831Z,2.50
2023-01-30T08:37:23.039Z,2.73
2023-01-30T08:42:25.918Z,2.87
2023-01-30T08:47:28.635Z,2.89
2023-01-30T08:52:33.239Z,2.96
2023-01-30T08:57:36.244Z,3.06
2023-01-30T09:02:39.004Z,3.17
2023-01-30T09:07:43.075Z,3.28
2023-01-30T09:12:46.568Z,3.37
2023-01-30T09:17:49.340Z,3.56
2023-01-30T09:22:53.438Z,3.58
2023-01-30T09:27:56.577Z,3.58
2023-01-30T09:32:59.268Z,3.71
2023-01-30T09:38:04.703Z,3.81
2023-01-30T09:43:23.528Z,4.01
2023-01-30T09:48:31.085Z,4.12
2023-01-30T09:53:39.915Z,4.12
2023-01-30T09:58:46.852Z,3.95
2023-01-30T10:03:57.390Z,3.87
2023-01-30T10:09:05.791Z,3.82
2023-01-30T10:14:25.495Z,3.85
2023-01-30T10:19:40.571Z,3.82
2023-01-30T10:24:52.812Z,3.84
2023-01-30T10:29:57.509Z,3.92
2023-01-30T10:35:06.390Z,3.84
2023-01-30T10:40:16.328Z,3.71
2023-01-30T10:45:22.087Z,3.65
2023-01-30T10:50:30.331Z,3.70
2023-01-30T10:55:38.497Z,3.79
2023-01-30T11:00:43.976Z,3.84
2023-01-30T11:05:50.323Z,3.84
2023-01-30T11:10:55.495Z,3.79
2023-01-30T11:16:00.563Z,3.79
2023-01-30T11:21:05.433Z,3.82
2023-01-30T11:26:20.278Z,3.88
2023-01-30T11:31:40.376Z,4.12
2023-01-30T11:36:46.024Z,4.24
2023-01-30T11:41:59.497Z,4.20
2023-01-30T11:47:04.337Z,4.20
2023-01-30T11:52:07.346Z,6.84
2023-01-30T11:57:15.078Z,6.29
2023-01-30T12:02:21.706Z,5.01
2023-01-30T12:07:26.502Z,4.82
2023-01-30T12:12:35.182Z,4.80
2023-01-30T12:17:43.866Z,4.64
2023-01-30T12:22:50.673Z,4.51
2023-01-30T12:28:00.994Z,4.49
2023-01-30T12:33:05.950Z,4.52
2023-01-30T12:38:18.882Z,5.14
2023-01-30T12:43:37.996Z,6.52
2023-01-30T12:49:11.042Z,5.91
2023-01-30T12:54:21.299Z,5.33
2023-01-30T12:59:29.124Z,5.81
2023-01-30T13:04:56.573Z,5.94
2023-01-30T13:10:10.764Z,6.05
2023-01-30T13:15:21.353Z,5.85
2023-01-30T13:20:37.723Z,5.79
2023-01-30T13:25:44.216Z,5.91
2023-01-30T13:30:50.948Z,5.46
2023-01-30T13:35:56.917Z,5.38
2023-01-30T13:41:01.473Z,5.12
2023-01-30T13:46:09.248Z,4.98
2023-01-30T13:51:24.562Z,4.89
2023-01-30T13:56:41.362Z,4.79
2023-01-30T14:02:16.664Z,4.64
2023-01-30T14:07:26.011Z,4.53
2023-01-30T14:12:33.831Z,4.50
2023-01-30T14:17:38.004Z,4.49
2023-01-30T14:22:51.250Z,4.54
2023-01-30T14:27:55.418Z,4.66
2023-01-30T14:33:00.981Z,4.76
2023-01-30T14:38:14.787Z,4.55
2023-01-30T14:43:54.231Z,4.15
2023-01-30T14:49:04.975Z,3.71
2023-01-30T14:54:11.122Z,3.51
2023-01-30T14:59:24.361Z,3.51
2023-01-30T15:04:31.931Z,3.46
2023-01-30T15:09:34.777Z,3.47
2023-01-30T15:14:43.578Z,3.47
2023-01-30T15:20:03.753Z,3.47
2023-01-30T15:25:25.641Z,3.57
2023-01-30T15:30:38.674Z,3.63
2023-01-30T15:35:43.746Z,3.57
2023-01-30T15:40:46.668Z,3.58
2023-01-30T15:46:02.831Z,3.55
2023-01-30T15:51:07.066Z,3.59
2023-01-30T15:56:11.955Z,3.61
2023-01-30T16:01:20.567Z,3.63
2023-01-30T16:06:32.552Z,3.70
2023-01-30T16:11:40.268Z,3.74
2023-01-30T16:16:44.707Z,3.81
2023-01-30T16:21:49.413Z,4.15
2023-01-30T16:26:55.240Z,4.45
2023-01-30T16:31:58.423Z,4.50
2023-01-30T16:37:07.827Z,4.52
2023-01-30T16:42:23.574Z,4.57
2023-01-30T16:47:28.018Z,4.59
2023-01-30T16:52:37.663Z,4.64
2023-01-30T16:57:43.661Z,4.62
2023-01-30T17:02:51.922Z,4.60
2023-01-30T17:07:57.293Z,4.54
2023-01-30T17:13:00.075Z,4.54
2023-01-30T17:18:03.022Z,4.52
2023-01-30T17:23:10.299Z,4.49
2023-01-30T17:28:21.023Z,4.46
2023-01-30T17:33:25.580Z,4.45
2023-01-30T17:38:29.630Z,4.42
2023-01-30T17:43:32.386Z,4.36
2023-01-30T17:48:35.077Z,4.28
2023-01-30T17:53:39.264Z,4.29
2023-01-30T17:58:41.983Z,3.90
2023-01-30T18:03:45.074Z,3.77
2023-01-30T18:08:49.248Z,3.81
2023-01-30T18:13:52.070Z,3.96
2023-01-30T18:18:54.953Z,4.13
2023-01-30T18:23:59.108Z,4.27
2023-01-30T18:29:01.888Z,4.31
2023-01-30T18:34:04.616Z,4.34
2023-01-30T18:39:09.113Z,4.37
2023-01-30T18:44:12.907Z,4.38
2023-01-30T18:49:15.768Z,4.43
2023-01-30T18:54:19.887Z,4.43
2023-01-30T18:59:22.967Z,4.46
2023-01-30T19:04:25.798Z,4.48
2023-01-30T19:09:30.888Z,4.49
2023-01-30T19:14:33.658Z,4.52
2023-01-30T19:19:37.037Z,4.39
2023-01-30T19:24:41.303Z,4.32
2023-01-30T19:29:43.993Z,4.37
2023-01-30T19:34:46.834Z,4.36
2023-01-30T19:39:51.295Z,4.49
2023-01-30T19:44:54.081Z,4.45
2023-01-30T19:49:56.810Z,4.51
2023-01-30T19:55:00.950Z,4.62
2023-01-30T20:00:04.817Z,4.71
2023-01-30T20:05:09.021Z,4.77
2023-01-30T20:10:13.408Z,4.79
2023-01-30T20:15:16.330Z,4.81
2023-01-30T20:20:19.321Z,4.81
2023-01-30T20:25:24.220Z,4.76
2023-01-30T20:30:26.993Z,4.49
2023-01-30T20:35:29.689Z,4.28
2023-01-30T20:40:33.742Z,4.25
2023-01-30T20:45:36.602Z,4.17
2023-01-30T20:50:39.576Z,4.17
2023-01-30T20:55:43.907Z,4.11
2023-01-30T21:00:46.635Z,4.05
2023-01-30T21:05:57.695Z,3.97
2023-01-30T21:11:10.718Z,3.91
2023-01-30T21:16:15.995Z,3.87
2023-01-30T21:21:20.351Z,3.88
2023-01-30T21:26:26.619Z,4.19
2023-01-30T21:31:30.890Z,4.37
2023-01-30T21:36:33.807Z,4.53
2023-01-30T21:41:57.547Z,4.65
2023-01-30T21:47:00.921Z,4.69
2023-01-30T21:52:03.673Z,4.73
2023-01-30T21:57:07.818Z,4.75
2023-01-30T22:02:10.584Z,4.75
2023-01-30T22:07:13.456Z,4.71
2023-01-30T22:12:17.748Z,4.73
2023-01-30T22:17:20.536Z,4.64
2023-01-30T22:22:25.131Z,4.56
2023-01-30T22:27:29.179Z,4.49
2023-01-30T22:32:32.034Z,4.46
2023-01-30T22:37:35.193Z,4.47
2023-01-30T22:42:39.462Z,4.45
2023-01-30T22:47:42.168Z,4.36
2023-01-30T22:52:44.905Z,4.27
2023-01-30T22:57:49.045Z,4.17
2023-01-30T23:02:51.751Z,4.22
2023-01-30T23:07:54.426Z,4.29
2023-01-30T23:13:07.312Z,4.34
2023-01-30T23:18:28.106Z,4.35
2023-01-30T23:23:31.029Z,4.39
2023-01-30T23:28:35.915Z,4.37
2023-01-30T23:33:38.907Z,4.34
2023-01-30T23:38:42.197Z,4.32
2023-01-30T23:43:47.036Z,4.03
2023-01-30T23:48:51.698Z,3.86
2023-01-30T23:53:55.225Z,3.94
2023-01-30T23:58:59.735Z,4.08
